Ken Goh — YJRV6 — position and weather

sailwx.info

Track history (hours):
 
Tides and Currents Weather Stations Pressure Air Temp Water Temp Dewpoint Dewpoint Depression Visibility Wind Speed Wind Dir Waves Ship Positions

Ken Goh

Last reported at 2017-Aug-22 11:18 UTC. Time now 2017-Sep-21 10:43 UTC.
Position N 30°59' W 019°36'.
Warning: this ship's position is 29 days out of date.

Length 171 m; draft 10 m.

Type: Cargo ship. MMSI: 576646000.

Date/timePositionNaut miles runAvg speedWind from/ knotsBaromVisibWave heightAir tempDewpointWater temp
2017-Aug-22 11:18N 30°59' W 019°36'411.9
2017-Aug-22 11:00N 31°00' W 019°32'1211.7
2017-Aug-22 09:58N 31°05' W 019°19'712.0
2017-Aug-22 09:24N 31°08' W 019°12'511.9
2017-Aug-22 09:00N 31°10' W 019°07'1512.0
2017-Aug-22 07:46N 31°16' W 018°51'312.1
2017-Aug-22 07:30N 31°17' W 018°48'612.1
2017-Aug-22 07:00N 31°20' W 018°41'612.0
2017-Aug-22 06:30N 31°22' W 018°35'611.9
2017-Aug-22 05:58N 31°25' W 018°28'611.9
2017-Aug-22 05:29N 31°27' W 018°22'711.9
2017-Aug-22 04:54N 31°30' W 018°15'512.0
2017-Aug-22 04:29N 31°32' W 018°09'2611.7
2017-Aug-22 02:17N 31°43' W 017°42'311.6
2017-Aug-22 02:01N 31°45' W 017°38'611.7
2017-Aug-22 01:30N 31°47' W 017°32'611.4
2017-Aug-22 01:00N 31°49' W 017°26'611.6
2017-Aug-22 00:30N 31°52' W 017°20'611.8
2017-Aug-22 00:00N 31°54' W 017°14'812.1
2017-Aug-21 23:21N 31°57' W 017°05'412.0
2017-Aug-21 22:59N 31°59' W 017°00'611.9
2017-Aug-21 22:30N 32°01' W 016°54'612.0
2017-Aug-21 22:01N 32°03' W 016°48'611.9
2017-Aug-21 21:30N 32°06' W 016°41'612.0
2017-Aug-21 21:01N 32°08' W 016°34'612.2
2017-Aug-21 20:30N 32°10' W 016°28'612.4
2017-Aug-21 20:00N 32°13' W 016°21'611.9
2017-Aug-21 19:30N 32°15' W 016°15'612.1
2017-Aug-21 19:00N 32°18' W 016°08'612.2
2017-Aug-21 18:30N 32°21' W 016°02'612.4
2017-Aug-21 18:00N 32°23' W 015°55'612.3
2017-Aug-21 17:30N 32°26' W 015°48'612.2
2017-Aug-21 17:00N 32°28' W 015°42'612.2
2017-Aug-21 16:30N 32°31' W 015°35'612.2
2017-Aug-21 16:00N 32°34' W 015°29'612.1
2017-Aug-21 15:30N 32°37' W 015°23'612.0
2017-Aug-21 15:00N 32°39' W 015°16'612.0
2017-Aug-21 14:28N 32°42' W 015°09'612.1
2017-Aug-21 14:00N 32°44' W 015°03'612.1
2017-Aug-21 13:30N 32°46' W 014°56'611.9
2017-Aug-21 13:00N 32°48' W 014°50'612.1
2017-Aug-21 12:28N 32°51' W 014°43'612.1
2017-Aug-21 11:59N 32°54' W 014°36'612.1
2017-Aug-21 11:30N 32°56' W 014°30'612.0
2017-Aug-21 11:00N 32°59' W 014°24'612.1
2017-Aug-21 10:28N 33°01' W 014°17'812.3
2017-Aug-21 09:51N 33°05' W 014°09'412.3
2017-Aug-21 09:30N 33°07' W 014°04'612.2
2017-Aug-21 09:00N 33°09' W 013°57'1312.7
2017-Aug-21 07:58N 33°15' W 013°43'712.2
2017-Aug-21 07:25N 33°18' W 013°36'612.1
2017-Aug-21 06:57N 33°20' W 013°30'612.4
2017-Aug-21 06:30N 33°22' W 013°24'612.4
2017-Aug-21 06:00N 33°25' W 013°17'612.4
2017-Aug-21 05:30N 33°27' W 013°10'612.4
2017-Aug-21 05:00N 33°30' W 013°03'612.7
2017-Aug-21 04:30N 33°33' W 012°56'712.5
2017-Aug-21 03:59N 33°35' W 012°49'612.4
2017-Aug-21 03:30N 33°38' W 012°43'612.3
2017-Aug-21 03:00N 33°41' W 012°36'612.1
2017-Aug-21 02:30N 33°43' W 012°30'612.0
2017-Aug-21 01:59N 33°46' W 012°23'612.2
2017-Aug-21 01:31N 33°48' W 012°16'611.9
2017-Aug-21 01:00N 33°51' W 012°10'712.0
2017-Aug-21 00:27N 33°53' W 012°02'612.2
2017-Aug-20 23:55N 33°56' W 011°55'512.0
2017-Aug-20 23:30N 33°58' W 011°50'611.9
2017-Aug-20 22:58N 34°00' W 011°43'911.8
2017-Aug-20 22:14N 34°04' W 011°33'311.8
2017-Aug-20 22:00N 34°05' W 011°30'611.6
2017-Aug-20 21:27N 34°08' W 011°24'511.4
2017-Aug-20 21:00N 34°10' W 011°18'611.7
2017-Aug-20 20:30N 34°13' W 011°11'611.8
2017-Aug-20 20:00N 34°15' W 011°05'611.8
2017-Aug-20 19:30N 34°17' W 010°58'611.6
2017-Aug-20 19:00N 34°19' W 010°52'611.5
2017-Aug-20 18:28N 34°22' W 010°45'611.6
2017-Aug-20 17:58N 34°24' W 010°38'911.7
2017-Aug-20 17:12N 34°27' W 010°28'211.6
2017-Aug-20 17:00N 34°28' W 010°26'611.7
2017-Aug-20 16:30N 34°31' W 010°19'611.6
2017-Aug-20 16:00N 34°33' W 010°13'611.7
2017-Aug-20 15:30N 34°35' W 010°06'611.5
2017-Aug-20 15:00N 34°37' W 009°60'711.7
2017-Aug-20 14:23N 34°41' W 009°52'411.5
2017-Aug-20 14:00N 34°42' W 009°47'611.3
2017-Aug-20 13:30N 34°44' W 009°41'611.2
2017-Aug-20 13:00N 34°47' W 009°34'611.3
2017-Aug-20 12:30N 34°49' W 009°28'611.4
2017-Aug-20 12:00N 34°51' W 009°22'611.7
2017-Aug-20 11:30N 34°54' W 009°15'611.6
2017-Aug-20 11:00N 34°56' W 009°09'2411.6
2017-Aug-20 08:54N 35°06' W 008°42'4011.8
2017-Aug-20 05:31N 35°22' W 007°57'011.7
2017-Aug-20 05:30N 35°22' W 007°57'2212.2
2017-Aug-20 03:41N 35°32' W 007°32'1312.2
2017-Aug-20 02:38N 35°38' W 007°18'212.1
2017-Aug-20 02:26N 35°39' W 007°16'7612.4
2017-Aug-19 20:21N 35°57' W 005°45'513.7
2017-Aug-19 19:58N 35°57' W 005°39'511.7
2017-Aug-19 19:30N 35°59' W 005°32'510.5
2017-Aug-19 19:00N 35°60' W 005°26'5 9.8
2017-Aug-19 18:30N 36°01' W 005°20'511.0
2017-Aug-19 18:00N 36°03' W 005°14'21411.7
2017-Aug-18 23:42N 36°34' W 000°52'312.4
2017-Aug-18 23:28N 36°35' W 000°48'612.3
2017-Aug-18 23:00N 36°36' W 000°41'612.1
2017-Aug-18 22:30N 36°38' W 000°34'1112.3
2017-Aug-18 21:38N 36°41' W 000°21'412.5
2017-Aug-18 21:20N 36°42' W 000°17'412.5
2017-Aug-18 21:00N 36°43' W 000°12'712.3
2017-Aug-18 20:28N 36°45' W 000°04'512.0
2017-Aug-18 20:00N 36°46' E 000°03'712.3
2017-Aug-18 19:25N 36°48' E 000°11'512.1
2017-Aug-18 19:00N 36°49' E 000°18'612.1
2017-Aug-18 18:30N 36°51' E 000°25'611.9
2017-Aug-18 18:00N 36°52' E 000°32'611.9
2017-Aug-18 17:30N 36°54' E 000°39'612.0
2017-Aug-18 17:00N 36°56' E 000°47'612.5
2017-Aug-18 16:30N 36°57' E 000°54'612.5
2017-Aug-18 16:00N 36°59' E 001°02'612.6
2017-Aug-18 15:29N 37°00' E 001°10'812.5
2017-Aug-18 14:50N 37°03' E 001°20'512.6
2017-Aug-18 14:28N 37°04' E 001°25'1212.9
2017-Aug-18 13:30N 37°07' E 001°40'712.8
2017-Aug-18 13:00N 37°10' E 001°47'1512.4
2017-Aug-18 11:47N 37°15' E 002°05'412.7
2017-Aug-18 11:30N 37°16' E 002°10'612.6
2017-Aug-18 11:00N 37°17' E 002°17'612.5
2017-Aug-18 10:30N 37°18' E 002°25'612.6
2017-Aug-18 10:00N 37°20' E 002°33'612.4
2017-Aug-18 09:30N 37°21' E 002°40'612.4
2017-Aug-18 09:00N 37°23' E 002°48'612.5
2017-Aug-18 08:30N 37°24' E 002°56'612.5
2017-Aug-18 08:00N 37°25' E 003°03'612.9
2017-Aug-18 07:30N 37°27' E 003°11'612.7
2017-Aug-18 07:00N 37°29' E 003°19'812.1
2017-Aug-18 06:18N 37°31' E 003°29'4112.2
2017-Aug-18 02:58N 37°35' E 004°20'612.3
2017-Aug-18 02:30N 37°35' E 004°27'613.0
2017-Aug-18 02:00N 37°36' E 004°35'612.8
2017-Aug-18 01:30N 37°36' E 004°44'612.7
2017-Aug-18 01:00N 37°35' E 004°52'612.9
2017-Aug-18 00:30N 37°35' E 004°60'612.9
2017-Aug-18 00:00N 37°35' E 005°08'712.9
2017-Aug-17 23:30N 37°35' E 005°16'612.8
2017-Aug-17 23:00N 37°35' E 005°24'812.6
2017-Aug-17 22:21N 37°35' E 005°34'512.3
2017-Aug-17 21:57N 37°35' E 005°41'612.2
2017-Aug-17 21:25N 37°35' E 005°49'7811.7
2017-Aug-17 14:47N 37°36' E 007°27'411.9
2017-Aug-17 14:29N 37°36' E 007°31'3412.5
2017-Aug-17 11:48N 37°36' E 008°14'413.1
2017-Aug-17 11:30N 37°36' E 008°19'2112.9
2017-Aug-17 09:53N 37°36' E 008°45'712.2
2017-Aug-17 09:17N 37°36' E 008°54'412.0
2017-Aug-17 08:58N 37°37' E 008°59'1312.3
2017-Aug-17 07:54N 37°38' E 009°16'512.2
2017-Aug-17 07:29N 37°37' E 009°22'612.2
2017-Aug-17 07:00N 37°38' E 009°29'612.1
2017-Aug-17 06:30N 37°38' E 009°37'612.2
2017-Aug-17 05:59N 37°38' E 009°45'612.2
2017-Aug-17 05:30N 37°38' E 009°52'812.2
2017-Aug-17 04:53N 37°38' E 010°02'512.2
2017-Aug-17 04:30N 37°39' E 010°08'612.1
2017-Aug-17 03:58N 37°39' E 010°16'612.1
2017-Aug-17 03:30N 37°38' E 010°23'611.9
2017-Aug-17 02:58N 37°37' E 010°31'612.1
2017-Aug-17 02:30N 37°36' E 010°38'612.1
2017-Aug-17 02:00N 37°35' E 010°46'612.1
2017-Aug-17 01:30N 37°34' E 010°53'612.0
2017-Aug-17 00:59N 37°33' E 011°01'612.0
2017-Aug-17 00:30N 37°30' E 011°08'612.0
2017-Aug-17 00:00N 37°27' E 011°14'612.2
2017-Aug-16 23:30N 37°24' E 011°21'612.6
2017-Aug-16 22:59N 37°21' E 011°28'612.8
2017-Aug-16 22:30N 37°18' E 011°34'713.1
2017-Aug-16 22:00N 37°15' E 011°42'712.2
2017-Aug-16 21:23N 37°11' E 011°50'512.0
2017-Aug-16 20:58N 37°08' E 011°55'612.2
2017-Aug-16 20:30N 37°06' E 012°01'612.1
2017-Aug-16 20:00N 37°03' E 012°08'612.2
2017-Aug-16 19:30N 36°60' E 012°15'712.4
2017-Aug-16 18:57N 36°57' E 012°22'612.4
2017-Aug-16 18:29N 36°54' E 012°29'612.3
2017-Aug-16 18:00N 36°51' E 012°35'612.4
2017-Aug-16 17:30N 36°49' E 012°43'612.3
2017-Aug-16 17:00N 36°47' E 012°50'612.4
2017-Aug-16 16:30N 36°46' E 012°57'612.5
2017-Aug-16 16:00N 36°44' E 013°05'612.4
2017-Aug-16 15:30N 36°42' E 013°12'612.7
2017-Aug-16 15:00N 36°41' E 013°20'612.6
2017-Aug-16 14:30N 36°39' E 013°28'612.7
2017-Aug-16 14:00N 36°38' E 013°35'612.6
2017-Aug-16 13:30N 36°36' E 013°43'612.7
2017-Aug-16 13:00N 36°34' E 013°51'612.5
2017-Aug-16 12:30N 36°33' E 013°58'612.2
2017-Aug-16 12:00N 36°31' E 014°05'612.1
2017-Aug-16 11:30N 36°30' E 014°13'612.0
2017-Aug-16 11:00N 36°28' E 014°20'611.9
2017-Aug-16 10:30N 36°27' E 014°27'611.7
2017-Aug-16 10:00N 36°25' E 014°34'611.5
2017-Aug-16 09:30N 36°24' E 014°41'611.3
2017-Aug-16 09:00N 36°22' E 014°48'611.2
2017-Aug-16 08:30N 36°21' E 014°55'511.0
2017-Aug-16 08:00N 36°20' E 015°01'611.4
2017-Aug-16 07:30N 36°19' E 015°08'611.7
2017-Aug-16 07:00N 36°19' E 015°15'612.2
2017-Aug-16 06:29N 36°19' E 015°23'3113.1
2017-Aug-16 04:06N 36°17' E 016°02'113.0
2017-Aug-16 04:00N 36°17' E 016°04'712.8
2017-Aug-16 03:29N 36°17' E 016°12'612.5
2017-Aug-16 03:00N 36°17' E 016°19'612.2
2017-Aug-16 02:30N 36°16' E 016°27'712.1
2017-Aug-16 01:58N 36°16' E 016°35'612.3
2017-Aug-16 01:28N 36°15' E 016°42'  
2017-Aug-13 00:34N 41°17' E 029°02'0 0.1
2017-Aug-13 00:28N 41°17' E 029°02'0 0.0
2017-Aug-12 18:49N 41°17' E 029°02'0 0.0
2017-Aug-12 18:25N 41°17' E 029°02'0 0.0
2017-Aug-12 12:01N 41°17' E 029°02'0 0.0
2017-Aug-12 11:49N 41°17' E 029°02'0 0.0
2017-Aug-12 11:28N 41°17' E 029°02'  
Track history (hours):
 
Tides and Currents Weather Stations Pressure Air Temp Water Temp Dewpoint Dewpoint Depression Visibility Wind Speed Wind Dir Waves Ship Positions

Ken Goh

Last reported at 2017-Aug-22 11:18 UTC. Time now 2017-Sep-21 10:43 UTC.
Position N 30°59' W 019°36'.
Warning: this ship's position is 29 days out of date.

Length 171 m; draft 10 m.

Type: Cargo ship. MMSI: 576646000.

Date/timePositionNaut miles runAvg speedWind from/ knotsBaromVisibWave heightAir tempDewpointWater temp
2017-Aug-22 11:18N 30°59' W 019°36'411.9
2017-Aug-22 11:00N 31°00' W 019°32'1211.7
2017-Aug-22 09:58N 31°05' W 019°19'712.0
2017-Aug-22 09:24N 31°08' W 019°12'511.9
2017-Aug-22 09:00N 31°10' W 019°07'1512.0
2017-Aug-22 07:46N 31°16' W 018°51'312.1
2017-Aug-22 07:30N 31°17' W 018°48'612.1
2017-Aug-22 07:00N 31°20' W 018°41'612.0
2017-Aug-22 06:30N 31°22' W 018°35'611.9
2017-Aug-22 05:58N 31°25' W 018°28'611.9
2017-Aug-22 05:29N 31°27' W 018°22'711.9
2017-Aug-22 04:54N 31°30' W 018°15'512.0
2017-Aug-22 04:29N 31°32' W 018°09'2611.7
2017-Aug-22 02:17N 31°43' W 017°42'311.6
2017-Aug-22 02:01N 31°45' W 017°38'611.7
2017-Aug-22 01:30N 31°47' W 017°32'611.4
2017-Aug-22 01:00N 31°49' W 017°26'611.6
2017-Aug-22 00:30N 31°52' W 017°20'611.8
2017-Aug-22 00:00N 31°54' W 017°14'812.1
2017-Aug-21 23:21N 31°57' W 017°05'412.0
2017-Aug-21 22:59N 31°59' W 017°00'611.9
2017-Aug-21 22:30N 32°01' W 016°54'612.0
2017-Aug-21 22:01N 32°03' W 016°48'611.9
2017-Aug-21 21:30N 32°06' W 016°41'612.0
2017-Aug-21 21:01N 32°08' W 016°34'612.2
2017-Aug-21 20:30N 32°10' W 016°28'612.4
2017-Aug-21 20:00N 32°13' W 016°21'611.9
2017-Aug-21 19:30N 32°15' W 016°15'612.1
2017-Aug-21 19:00N 32°18' W 016°08'612.2
2017-Aug-21 18:30N 32°21' W 016°02'612.4
2017-Aug-21 18:00N 32°23' W 015°55'612.3
2017-Aug-21 17:30N 32°26' W 015°48'612.2
2017-Aug-21 17:00N 32°28' W 015°42'612.2
2017-Aug-21 16:30N 32°31' W 015°35'612.2
2017-Aug-21 16:00N 32°34' W 015°29'612.1
2017-Aug-21 15:30N 32°37' W 015°23'612.0
2017-Aug-21 15:00N 32°39' W 015°16'612.0
2017-Aug-21 14:28N 32°42' W 015°09'612.1
2017-Aug-21 14:00N 32°44' W 015°03'612.1
2017-Aug-21 13:30N 32°46' W 014°56'611.9
2017-Aug-21 13:00N 32°48' W 014°50'612.1
2017-Aug-21 12:28N 32°51' W 014°43'612.1
2017-Aug-21 11:59N 32°54' W 014°36'612.1
2017-Aug-21 11:30N 32°56' W 014°30'612.0
2017-Aug-21 11:00N 32°59' W 014°24'612.1
2017-Aug-21 10:28N 33°01' W 014°17'812.3
2017-Aug-21 09:51N 33°05' W 014°09'412.3
2017-Aug-21 09:30N 33°07' W 014°04'612.2
2017-Aug-21 09:00N 33°09' W 013°57'1312.7
2017-Aug-21 07:58N 33°15' W 013°43'712.2
2017-Aug-21 07:25N 33°18' W 013°36'612.1
2017-Aug-21 06:57N 33°20' W 013°30'612.4
2017-Aug-21 06:30N 33°22' W 013°24'612.4
2017-Aug-21 06:00N 33°25' W 013°17'612.4
2017-Aug-21 05:30N 33°27' W 013°10'612.4
2017-Aug-21 05:00N 33°30' W 013°03'612.7
2017-Aug-21 04:30N 33°33' W 012°56'712.5
2017-Aug-21 03:59N 33°35' W 012°49'612.4
2017-Aug-21 03:30N 33°38' W 012°43'612.3
2017-Aug-21 03:00N 33°41' W 012°36'612.1
2017-Aug-21 02:30N 33°43' W 012°30'612.0
2017-Aug-21 01:59N 33°46' W 012°23'612.2
2017-Aug-21 01:31N 33°48' W 012°16'611.9
2017-Aug-21 01:00N 33°51' W 012°10'712.0
2017-Aug-21 00:27N 33°53' W 012°02'612.2
2017-Aug-20 23:55N 33°56' W 011°55'512.0
2017-Aug-20 23:30N 33°58' W 011°50'611.9
2017-Aug-20 22:58N 34°00' W 011°43'911.8
2017-Aug-20 22:14N 34°04' W 011°33'311.8
2017-Aug-20 22:00N 34°05' W 011°30'611.6
2017-Aug-20 21:27N 34°08' W 011°24'511.4
2017-Aug-20 21:00N 34°10' W 011°18'611.7
2017-Aug-20 20:30N 34°13' W 011°11'611.8
2017-Aug-20 20:00N 34°15' W 011°05'611.8
2017-Aug-20 19:30N 34°17' W 010°58'611.6
2017-Aug-20 19:00N 34°19' W 010°52'611.5
2017-Aug-20 18:28N 34°22' W 010°45'611.6
2017-Aug-20 17:58N 34°24' W 010°38'911.7
2017-Aug-20 17:12N 34°27' W 010°28'211.6
2017-Aug-20 17:00N 34°28' W 010°26'611.7
2017-Aug-20 16:30N 34°31' W 010°19'611.6
2017-Aug-20 16:00N 34°33' W 010°13'611.7
2017-Aug-20 15:30N 34°35' W 010°06'611.5
2017-Aug-20 15:00N 34°37' W 009°60'711.7
2017-Aug-20 14:23N 34°41' W 009°52'411.5
2017-Aug-20 14:00N 34°42' W 009°47'611.3
2017-Aug-20 13:30N 34°44' W 009°41'611.2
2017-Aug-20 13:00N 34°47' W 009°34'611.3
2017-Aug-20 12:30N 34°49' W 009°28'611.4
2017-Aug-20 12:00N 34°51' W 009°22'611.7
2017-Aug-20 11:30N 34°54' W 009°15'611.6
2017-Aug-20 11:00N 34°56' W 009°09'2411.6
2017-Aug-20 08:54N 35°06' W 008°42'4011.8
2017-Aug-20 05:31N 35°22' W 007°57'011.7
2017-Aug-20 05:30N 35°22' W 007°57'2212.2
2017-Aug-20 03:41N 35°32' W 007°32'1312.2
2017-Aug-20 02:38N 35°38' W 007°18'212.1
2017-Aug-20 02:26N 35°39' W 007°16'7612.4
2017-Aug-19 20:21N 35°57' W 005°45'513.7
2017-Aug-19 19:58N 35°57' W 005°39'511.7
2017-Aug-19 19:30N 35°59' W 005°32'510.5
2017-Aug-19 19:00N 35°60' W 005°26'5 9.8
2017-Aug-19 18:30N 36°01' W 005°20'511.0
2017-Aug-19 18:00N 36°03' W 005°14'21411.7
2017-Aug-18 23:42N 36°34' W 000°52'312.4
2017-Aug-18 23:28N 36°35' W 000°48'612.3
2017-Aug-18 23:00N 36°36' W 000°41'612.1
2017-Aug-18 22:30N 36°38' W 000°34'1112.3
2017-Aug-18 21:38N 36°41' W 000°21'412.5
2017-Aug-18 21:20N 36°42' W 000°17'412.5
2017-Aug-18 21:00N 36°43' W 000°12'712.3
2017-Aug-18 20:28N 36°45' W 000°04'512.0
2017-Aug-18 20:00N 36°46' E 000°03'712.3
2017-Aug-18 19:25N 36°48' E 000°11'512.1
2017-Aug-18 19:00N 36°49' E 000°18'612.1
2017-Aug-18 18:30N 36°51' E 000°25'611.9
2017-Aug-18 18:00N 36°52' E 000°32'611.9
2017-Aug-18 17:30N 36°54' E 000°39'612.0
2017-Aug-18 17:00N 36°56' E 000°47'612.5
2017-Aug-18 16:30N 36°57' E 000°54'612.5
2017-Aug-18 16:00N 36°59' E 001°02'612.6
2017-Aug-18 15:29N 37°00' E 001°10'812.5
2017-Aug-18 14:50N 37°03' E 001°20'512.6
2017-Aug-18 14:28N 37°04' E 001°25'1212.9
2017-Aug-18 13:30N 37°07' E 001°40'712.8
2017-Aug-18 13:00N 37°10' E 001°47'1512.4
2017-Aug-18 11:47N 37°15' E 002°05'412.7
2017-Aug-18 11:30N 37°16' E 002°10'612.6
2017-Aug-18 11:00N 37°17' E 002°17'612.5
2017-Aug-18 10:30N 37°18' E 002°25'612.6
2017-Aug-18 10:00N 37°20' E 002°33'612.4
2017-Aug-18 09:30N 37°21' E 002°40'612.4
2017-Aug-18 09:00N 37°23' E 002°48'612.5
2017-Aug-18 08:30N 37°24' E 002°56'612.5
2017-Aug-18 08:00N 37°25' E 003°03'612.9
2017-Aug-18 07:30N 37°27' E 003°11'612.7
2017-Aug-18 07:00N 37°29' E 003°19'812.1
2017-Aug-18 06:18N 37°31' E 003°29'4112.2
2017-Aug-18 02:58N 37°35' E 004°20'612.3
2017-Aug-18 02:30N 37°35' E 004°27'613.0
2017-Aug-18 02:00N 37°36' E 004°35'612.8
2017-Aug-18 01:30N 37°36' E 004°44'612.7
2017-Aug-18 01:00N 37°35' E 004°52'612.9
2017-Aug-18 00:30N 37°35' E 004°60'612.9
2017-Aug-18 00:00N 37°35' E 005°08'712.9
2017-Aug-17 23:30N 37°35' E 005°16'612.8
2017-Aug-17 23:00N 37°35' E 005°24'812.6
2017-Aug-17 22:21N 37°35' E 005°34'512.3
2017-Aug-17 21:57N 37°35' E 005°41'612.2
2017-Aug-17 21:25N 37°35' E 005°49'7811.7
2017-Aug-17 14:47N 37°36' E 007°27'411.9
2017-Aug-17 14:29N 37°36' E 007°31'3412.5
2017-Aug-17 11:48N 37°36' E 008°14'413.1
2017-Aug-17 11:30N 37°36' E 008°19'2112.9
2017-Aug-17 09:53N 37°36' E 008°45'712.2
2017-Aug-17 09:17N 37°36' E 008°54'412.0
2017-Aug-17 08:58N 37°37' E 008°59'1312.3
2017-Aug-17 07:54N 37°38' E 009°16'512.2
2017-Aug-17 07:29N 37°37' E 009°22'612.2
2017-Aug-17 07:00N 37°38' E 009°29'612.1
2017-Aug-17 06:30N 37°38' E 009°37'612.2
2017-Aug-17 05:59N 37°38' E 009°45'612.2
2017-Aug-17 05:30N 37°38' E 009°52'812.2
2017-Aug-17 04:53N 37°38' E 010°02'512.2
2017-Aug-17 04:30N 37°39' E 010°08'612.1
2017-Aug-17 03:58N 37°39' E 010°16'612.1
2017-Aug-17 03:30N 37°38' E 010°23'611.9
2017-Aug-17 02:58N 37°37' E 010°31'612.1
2017-Aug-17 02:30N 37°36' E 010°38'612.1
2017-Aug-17 02:00N 37°35' E 010°46'612.1
2017-Aug-17 01:30N 37°34' E 010°53'612.0
2017-Aug-17 00:59N 37°33' E 011°01'612.0
2017-Aug-17 00:30N 37°30' E 011°08'612.0
2017-Aug-17 00:00N 37°27' E 011°14'612.2
2017-Aug-16 23:30N 37°24' E 011°21'612.6
2017-Aug-16 22:59N 37°21' E 011°28'612.8
2017-Aug-16 22:30N 37°18' E 011°34'713.1
2017-Aug-16 22:00N 37°15' E 011°42'712.2
2017-Aug-16 21:23N 37°11' E 011°50'512.0
2017-Aug-16 20:58N 37°08' E 011°55'612.2
2017-Aug-16 20:30N 37°06' E 012°01'612.1
2017-Aug-16 20:00N 37°03' E 012°08'612.2
2017-Aug-16 19:30N 36°60' E 012°15'712.4
2017-Aug-16 18:57N 36°57' E 012°22'612.4
2017-Aug-16 18:29N 36°54' E 012°29'612.3
2017-Aug-16 18:00N 36°51' E 012°35'612.4
2017-Aug-16 17:30N 36°49' E 012°43'612.3
2017-Aug-16 17:00N 36°47' E 012°50'612.4
2017-Aug-16 16:30N 36°46' E 012°57'612.5
2017-Aug-16 16:00N 36°44' E 013°05'612.4
2017-Aug-16 15:30N 36°42' E 013°12'612.7
2017-Aug-16 15:00N 36°41' E 013°20'612.6
2017-Aug-16 14:30N 36°39' E 013°28'612.7
2017-Aug-16 14:00N 36°38' E 013°35'612.6
2017-Aug-16 13:30N 36°36' E 013°43'612.7
2017-Aug-16 13:00N 36°34' E 013°51'612.5
2017-Aug-16 12:30N 36°33' E 013°58'612.2
2017-Aug-16 12:00N 36°31' E 014°05'612.1
2017-Aug-16 11:30N 36°30' E 014°13'612.0
2017-Aug-16 11:00N 36°28' E 014°20'611.9
2017-Aug-16 10:30N 36°27' E 014°27'611.7
2017-Aug-16 10:00N 36°25' E 014°34'611.5
2017-Aug-16 09:30N 36°24' E 014°41'611.3
2017-Aug-16 09:00N 36°22' E 014°48'611.2
2017-Aug-16 08:30N 36°21' E 014°55'511.0
2017-Aug-16 08:00N 36°20' E 015°01'611.4
2017-Aug-16 07:30N 36°19' E 015°08'611.7
2017-Aug-16 07:00N 36°19' E 015°15'612.2
2017-Aug-16 06:29N 36°19' E 015°23'3113.1
2017-Aug-16 04:06N 36°17' E 016°02'113.0
2017-Aug-16 04:00N 36°17' E 016°04'712.8
2017-Aug-16 03:29N 36°17' E 016°12'612.5
2017-Aug-16 03:00N 36°17' E 016°19'612.2
2017-Aug-16 02:30N 36°16' E 016°27'712.1
2017-Aug-16 01:58N 36°16' E 016°35'612.3
2017-Aug-16 01:28N 36°15' E 016°42'  
2017-Aug-13 00:34N 41°17' E 029°02'0 0.1
2017-Aug-13 00:28N 41°17' E 029°02'0 0.0
2017-Aug-12 18:49N 41°17' E 029°02'0 0.0
2017-Aug-12 18:25N 41°17' E 029°02'0 0.0
2017-Aug-12 12:01N 41°17' E 029°02'0 0.0
2017-Aug-12 11:49N 41°17' E 029°02'0 0.0
2017-Aug-12 11:28N 41°17' E 029°02'  

Dump ship's entire track history